createdAt,value
2023-07-15T00:01:29.049Z,100551.53
2023-07-15T00:03:56.106Z,100544.53
2023-07-15T00:06:24.500Z,100535.66
2023-07-15T00:08:51.986Z,100526.38
2023-07-15T00:11:32.510Z,100523.41
2023-07-15T00:14:00.033Z,100524.31
2023-07-15T00:16:28.174Z,100524.88
2023-07-15T00:18:55.213Z,100528.28
2023-07-15T00:21:27.135Z,100530.09
2023-07-15T00:23:58.908Z,100535.47
2023-07-15T00:26:31.183Z,100527.63
2023-07-15T00:28:58.580Z,100529.31
2023-07-15T00:31:27.643Z,100522.22
2023-07-15T00:33:54.323Z,100508.16
2023-07-15T00:36:20.877Z,100504.00
2023-07-15T00:38:47.559Z,100500.31
2023-07-15T00:41:24.372Z,100500.31
2023-07-15T00:43:59.643Z,100497.75
2023-07-15T00:47:04.371Z,100492.38
2023-07-15T00:49:34.247Z,100476.78
2023-07-15T00:52:05.933Z,100471.88
2023-07-15T00:54:38.200Z,100460.63
2023-07-15T00:57:07.434Z,100460.63
2023-07-15T00:59:34.812Z,100460.06
2023-07-15T01:02:01.711Z,100457.22
2023-07-15T01:04:28.110Z,100452.13
2023-07-15T01:06:55.056Z,100447.84
2023-07-15T01:09:23.557Z,100449.84
2023-07-15T01:11:50.211Z,100451.84
2023-07-15T01:14:16.557Z,100459.84
2023-07-15T01:16:43.129Z,100453.97
2023-07-15T01:19:10.095Z,100456.59
2023-07-15T01:21:36.861Z,100461.34
2023-07-15T01:24:04.389Z,100453.78
2023-07-15T01:26:32.757Z,100449.16
2023-07-15T01:28:59.586Z,100453.09
2023-07-15T01:31:28.082Z,100442.31
2023-07-15T01:33:54.766Z,100437.91
2023-07-15T01:36:21.177Z,100426.47
2023-07-15T01:38:47.573Z,100422.25
2023-07-15T01:41:14.180Z,100417.97
2023-07-15T01:43:40.542Z,100421.72
2023-07-15T01:46:06.985Z,100416.63
2023-07-15T01:48:34.157Z,100413.91
2023-07-15T01:51:00.872Z,100413.25
2023-07-15T01:53:27.222Z,100409.72
2023-07-15T01:55:53.649Z,100403.09
2023-07-15T01:58:22.104Z,100401.56
2023-07-15T02:00:49.701Z,100399.97
2023-07-15T02:03:16.588Z,100389.75
2023-07-15T02:05:43.638Z,100389.94
2023-07-15T02:08:10.276Z,100383.97
2023-07-15T02:10:37.015Z,100374.16
2023-07-15T02:13:03.684Z,100375.47
2023-07-15T02:15:30.093Z,100375.81
2023-07-15T02:17:57.328Z,100369.94
2023-07-15T02:20:23.828Z,100360.16
2023-07-15T02:22:50.248Z,100352.50
2023-07-15T02:25:17.908Z,100356.16
2023-07-15T02:27:44.555Z,100349.97
2023-07-15T02:30:11.456Z,100345.22
2023-07-15T02:32:43.247Z,100348.59
2023-07-15T02:35:11.493Z,100340.34
2023-07-15T02:37:42.310Z,100335.75
2023-07-15T02:40:11.159Z,100334.22
2023-07-15T02:42:38.705Z,100328.19
2023-07-15T02:45:07.206Z,100328.53
2023-07-15T02:47:34.730Z,100321.63
2023-07-15T02:50:06.322Z,100320.97
2023-07-15T02:52:34.171Z,100317.50
2023-07-15T02:55:01.684Z,100309.75
2023-07-15T02:57:28.935Z,100304.28
2023-07-15T02:59:57.220Z,100309.81
2023-07-15T03:02:24.921Z,100302.94
2023-07-15T03:04:51.822Z,100293.97
2023-07-15T03:07:19.160Z,100296.81
2023-07-15T03:09:48.662Z,100292.28
2023-07-15T03:12:15.359Z,100298.59
2023-07-15T03:14:44.612Z,100291.03
2023-07-15T03:17:12.072Z,100290.38
2023-07-15T03:19:38.937Z,100287.63
2023-07-15T03:22:06.541Z,100280.56
2023-07-15T03:24:35.034Z,100284.31
2023-07-15T03:27:01.489Z,100279.94
2023-07-15T03:29:27.881Z,100280.31
2023-07-15T03:31:54.387Z,100282.94
2023-07-15T03:34:21.045Z,100288.38
2023-07-15T03:36:47.460Z,100286.84
2023-07-15T03:39:13.795Z,100288.75
2023-07-15T03:41:40.460Z,100287.00
2023-07-15T03:44:07.104Z,100271.38
2023-07-15T03:46:35.382Z,100278.19
2023-07-15T03:49:02.013Z,100279.28
2023-07-15T03:51:28.393Z,100275.97
2023-07-15T03:53:54.791Z,100272.38
2023-07-15T03:56:21.350Z,100273.25
2023-07-15T03:58:48.406Z,100270.28
2023-07-15T04:01:14.868Z,100269.16
2023-07-15T04:03:41.250Z,100260.28
2023-07-15T04:06:08.786Z,100260.03
2023-07-15T04:08:35.689Z,100259.03
2023-07-15T04:11:02.459Z,100259.94
2023-07-15T04:13:29.044Z,100260.50
2023-07-15T04:15:55.679Z,100260.50
2023-07-15T04:18:22.514Z,100261.34
2023-07-15T04:20:49.257Z,100251.84
2023-07-15T04:23:15.968Z,100252.66
2023-07-15T04:25:42.418Z,100252.03
2023-07-15T04:28:09.411Z,100251.09
2023-07-15T04:30:36.565Z,100247.69
2023-07-15T04:33:04.055Z,100248.28
2023-07-15T04:35:30.547Z,100245.59
2023-07-15T04:37:56.969Z,100244.28
2023-07-15T04:40:23.317Z,100239.88
2023-07-15T04:42:49.654Z,100242.41
2023-07-15T04:45:16.115Z,100243.09
2023-07-15T04:47:42.865Z,100240.56
2023-07-15T04:50:10.104Z,100237.81
2023-07-15T04:52:36.536Z,100231.38
2023-07-15T04:55:04.063Z,100229.44
2023-07-15T04:57:30.748Z,100233.25
2023-07-15T04:59:57.396Z,100233.44
2023-07-15T05:02:23.925Z,100233.88
2023-07-15T05:04:50.323Z,100236.31
2023-07-15T05:07:16.982Z,100232.06
2023-07-15T05:09:44.080Z,100229.16
2023-07-15T05:12:12.104Z,100225.50
2023-07-15T05:14:38.570Z,100223.06
2023-07-15T05:17:07.035Z,100222.63
2023-07-15T05:19:33.421Z,100229.63
2023-07-15T05:21:59.822Z,100233.72
2023-07-15T05:24:29.914Z,100226.19
2023-07-15T05:26:57.163Z,100229.81
2023-07-15T05:29:24.101Z,100232.94
2023-07-15T05:31:51.494Z,100235.06
2023-07-15T05:34:18.230Z,100233.09
2023-07-15T05:36:44.631Z,100236.91
2023-07-15T05:39:12.682Z,100241.53
2023-07-15T05:41:39.178Z,100240.78
2023-07-15T05:44:05.713Z,100242.09
2023-07-15T05:46:32.311Z,100240.69
2023-07-15T05:48:59.854Z,100252.06
2023-07-15T05:51:26.319Z,100238.50
2023-07-15T05:53:52.720Z,100240.06
2023-07-15T05:56:19.179Z,100239.22
2023-07-15T05:58:45.568Z,100248.25
2023-07-15T06:01:12.339Z,100242.63
2023-07-15T06:03:39.683Z,100231.53
2023-07-15T06:06:06.352Z,100236.59
2023-07-15T06:08:33.215Z,100246.69
2023-07-15T06:10:59.679Z,100241.50
2023-07-15T06:13:27.884Z,100235.34
2023-07-15T06:15:56.906Z,100239.00
2023-07-15T06:18:23.284Z,100240.50
2023-07-15T06:20:51.518Z,100240.78
2023-07-15T06:23:17.854Z,100236.31
2023-07-15T06:25:44.422Z,100243.41
2023-07-15T06:28:10.891Z,100245.69
2023-07-15T06:30:37.305Z,100228.97
2023-07-15T06:33:04.096Z,100233.50
2023-07-15T06:35:30.542Z,100233.38
2023-07-15T06:37:57.181Z,100231.34
2023-07-15T06:40:23.818Z,100226.66
2023-07-15T06:42:50.402Z,100236.91
2023-07-15T06:45:22.587Z,100237.19
2023-07-15T06:47:49.127Z,100231.63
2023-07-15T06:50:16.400Z,100228.84
2023-07-15T06:52:43.027Z,100225.78
2023-07-15T06:55:09.690Z,100225.94
2023-07-15T06:57:36.302Z,100224.97
2023-07-15T07:00:03.057Z,100226.03
2023-07-15T07:02:29.549Z,100227.41
2023-07-15T07:04:56.258Z,100222.00
2023-07-15T07:07:24.461Z,100217.91
2023-07-15T07:09:50.918Z,100220.78
2023-07-15T07:12:18.925Z,100221.47
2023-07-15T07:14:45.630Z,100223.56
2023-07-15T07:17:12.019Z,100216.25
2023-07-15T07:19:38.661Z,100208.78
2023-07-15T07:22:05.421Z,100219.38
2023-07-15T07:24:32.114Z,100218.06
2023-07-15T07:26:59.123Z,100231.53
2023-07-15T07:29:25.664Z,100219.34
2023-07-15T07:31:53.534Z,100217.25
2023-07-15T07:34:20.118Z,100227.91
2023-07-15T07:36:46.599Z,100218.63
2023-07-15T07:39:14.269Z,100217.53
2023-07-15T07:41:41.648Z,100218.94
2023-07-15T07:44:09.997Z,100218.28
2023-07-15T07:46:36.760Z,100211.41
2023-07-15T07:49:03.536Z,100217.47
2023-07-15T07:51:30.272Z,100207.97
2023-07-15T07:53:57.206Z,100201.13
2023-07-15T07:56:24.708Z,100205.34
2023-07-15T07:58:58.375Z,100210.69
2023-07-15T08:01:28.173Z,100205.78
2023-07-15T08:03:55.695Z,100211.28
2023-07-15T08:06:22.896Z,100202.31
2023-07-15T08:08:49.589Z,100203.56
2023-07-15T08:11:16.438Z,100205.25
2023-07-15T08:13:43.201Z,100198.03
2023-07-15T08:16:32.212Z,100204.25
2023-07-15T08:18:59.567Z,100190.06
2023-07-15T08:21:27.973Z,100200.03
2023-07-15T08:23:55.235Z,100198.13
2023-07-15T08:26:22.580Z,100200.97
2023-07-15T08:28:50.781Z,100198.16
2023-07-15T08:31:18.147Z,100196.41
2023-07-15T08:33:44.910Z,100205.59
2023-07-15T08:36:11.425Z,100197.16
2023-07-15T08:38:38.124Z,100196.31
2023-07-15T08:41:04.696Z,100192.66
2023-07-15T08:43:32.053Z,100195.22
2023-07-15T08:46:32.296Z,100198.94
2023-07-15T08:49:00.884Z,100195.44
2023-07-15T08:51:37.876Z,100191.81
2023-07-15T08:54:07.163Z,100197.25
2023-07-15T08:56:35.766Z,100194.50
2023-07-15T08:59:07.260Z,100193.47
2023-07-15T09:01:36.396Z,100200.22
2023-07-15T09:04:03.192Z,100202.59
2023-07-15T09:06:29.774Z,100209.94
2023-07-15T09:08:57.289Z,100199.00
2023-07-15T09:11:23.694Z,100200.91
2023-07-15T09:13:50.155Z,100193.16
2023-07-15T09:16:17.906Z,100198.69
2023-07-15T09:18:44.648Z,100195.13
2023-07-15T09:21:16.678Z,100198.03
2023-07-15T09:23:45.829Z,100200.75
2023-07-15T09:26:13.679Z,100196.78
2023-07-15T09:28:44.489Z,100195.63
2023-07-15T09:31:11.191Z,100194.16
2023-07-15T09:33:40.725Z,100191.09
2023-07-15T09:36:07.940Z,100193.91
2023-07-15T09:38:37.295Z,100192.09
2023-07-15T09:41:05.472Z,100186.22
2023-07-15T09:43:52.145Z,100180.44
2023-07-15T09:46:20.676Z,100181.97
2023-07-15T09:48:49.659Z,100178.44
2023-07-15T09:51:17.585Z,100178.44
2023-07-15T09:53:51.875Z,100166.59
2023-07-15T09:56:22.791Z,100166.16
2023-07-15T09:58:51.427Z,100168.38
2023-07-15T10:01:32.826Z,100176.44
2023-07-15T10:04:13.805Z,100175.44
2023-07-15T10:06:41.025Z,100177.94
2023-07-15T10:09:09.358Z,100183.31
2023-07-15T10:11:36.706Z,100182.84
2023-07-15T10:14:04.711Z,100178.44
2023-07-15T10:16:35.644Z,100170.06
2023-07-15T10:19:02.801Z,100167.94
2023-07-15T10:21:29.488Z,100174.28
2023-07-15T10:24:22.438Z,100167.59
2023-07-15T10:26:52.445Z,100168.28
2023-07-15T10:29:18.851Z,100173.00
2023-07-15T10:32:18.979Z,100180.72
2023-07-15T10:34:51.689Z,100177.84
2023-07-15T10:37:19.761Z,100188.59
2023-07-15T10:39:47.147Z,100188.75
2023-07-15T10:42:18.313Z,100192.97
2023-07-15T10:44:55.501Z,100190.94
2023-07-15T10:47:23.201Z,100187.56
2023-07-15T10:49:51.928Z,100185.03
2023-07-15T10:52:21.116Z,100184.53
2023-07-15T10:54:48.320Z,100177.97
2023-07-15T10:57:16.576Z,100175.16
2023-07-15T10:59:44.436Z,100180.38
2023-07-15T11:02:11.902Z,100179.25
2023-07-15T11:04:41.055Z,100177.00
2023-07-15T11:07:12.094Z,100181.94
2023-07-15T11:09:40.902Z,100174.44
2023-07-15T11:12:09.723Z,100190.81
2023-07-15T11:14:40.441Z,100188.47
2023-07-15T11:17:08.198Z,100188.03
2023-07-15T11:19:35.067Z,100196.06
2023-07-15T11:22:06.740Z,100185.06
2023-07-15T11:24:34.408Z,100190.00
2023-07-15T11:27:01.936Z,100191.16
2023-07-15T11:29:29.243Z,100192.03
2023-07-15T11:31:57.614Z,100196.81
2023-07-15T11:34:25.846Z,100193.78
2023-07-15T11:37:00.232Z,100200.84
2023-07-15T11:39:26.825Z,100193.44
2023-07-15T11:41:53.646Z,100190.28
2023-07-15T11:44:24.473Z,100196.81
2023-07-15T11:46:51.477Z,100194.13
2023-07-15T11:49:22.591Z,100205.25
2023-07-15T11:51:49.706Z,100204.25
2023-07-15T11:54:17.858Z,100206.41
2023-07-15T11:56:45.279Z,100207.03
2023-07-15T11:59:13.391Z,100205.00
2023-07-15T12:01:41.889Z,100197.75
2023-07-15T12:04:15.441Z,100213.75
2023-07-15T12:06:53.754Z,100207.44
2023-07-15T12:09:22.621Z,100212.84
2023-07-15T12:11:50.526Z,100218.44
2023-07-15T12:14:18.240Z,100220.44
2023-07-15T12:16:46.182Z,100210.47
2023-07-15T12:19:14.892Z,100220.38
2023-07-15T12:21:41.491Z,100218.53
2023-07-15T12:24:08.612Z,100225.09
2023-07-15T12:26:35.491Z,100206.22
2023-07-15T12:29:02.134Z,100218.69
2023-07-15T12:31:30.017Z,100219.75
2023-07-15T12:33:56.719Z,100223.13
2023-07-15T12:36:23.370Z,100214.25
2023-07-15T12:38:49.932Z,100217.97
2023-07-15T12:41:16.462Z,100213.75
2023-07-15T12:43:43.150Z,100224.81
2023-07-15T12:46:10.012Z,100225.47
2023-07-15T12:48:38.072Z,100217.59
2023-07-15T12:51:04.435Z,100223.44
2023-07-15T12:53:31.018Z,100225.88
2023-07-15T12:55:57.727Z,100227.00
2023-07-15T12:58:24.461Z,100219.25
2023-07-15T13:00:51.458Z,100219.50
2023-07-15T13:03:18.659Z,100226.03
2023-07-15T13:05:45.445Z,100234.56
2023-07-15T13:08:15.011Z,100230.06
2023-07-15T13:10:41.968Z,100207.94
2023-07-15T13:13:08.550Z,100226.75
2023-07-15T13:15:34.975Z,100218.75
2023-07-15T13:18:01.431Z,100231.69
2023-07-15T13:20:28.698Z,100223.25
2023-07-15T13:22:55.383Z,100229.91
2023-07-15T13:25:22.241Z,100224.78
2023-07-15T13:27:48.645Z,100219.63
2023-07-15T13:30:15.181Z,100222.44
2023-07-15T13:32:41.680Z,100231.16
2023-07-15T13:35:08.786Z,100238.16
2023-07-15T13:37:35.223Z,100237.91
2023-07-15T13:40:01.651Z,100222.66
2023-07-15T13:42:28.352Z,100205.59
2023-07-15T13:44:54.696Z,100200.41
2023-07-15T13:47:21.215Z,100210.06
2023-07-15T13:49:47.924Z,100201.63
2023-07-15T13:52:14.344Z,100194.16
2023-07-15T13:54:40.791Z,100192.88
2023-07-15T13:57:07.325Z,100186.88
2023-07-15T13:59:34.079Z,100186.16
2023-07-15T14:02:01.208Z,100196.50
2023-07-15T14:04:27.918Z,100190.44
2023-07-15T14:06:54.466Z,100186.28
2023-07-15T14:09:20.819Z,100195.75
2023-07-15T14:11:47.230Z,100186.84
2023-07-15T14:14:16.027Z,100202.91
2023-07-15T14:16:43.186Z,100197.06
2023-07-15T14:19:09.755Z,100196.53
2023-07-15T14:21:36.255Z,100200.06
2023-07-15T14:24:05.850Z,100205.50
2023-07-15T14:26:33.203Z,100218.56
2023-07-15T14:29:00.315Z,100220.22
2023-07-15T14:31:27.185Z,100211.94
2023-07-15T14:33:58.140Z,100209.16
2023-07-15T14:36:26.622Z,100201.44
2023-07-15T14:38:54.005Z,100196.63
2023-07-15T14:41:20.683Z,100208.47
2023-07-15T14:43:47.179Z,100223.56
2023-07-15T14:46:15.177Z,100199.31
2023-07-15T14:48:41.873Z,100196.84
2023-07-15T14:51:08.840Z,100198.16
2023-07-15T14:53:35.272Z,100198.09
2023-07-15T14:56:02.288Z,100198.38
2023-07-15T14:58:28.834Z,100195.75
2023-07-15T15:00:55.275Z,100187.91
2023-07-15T15:03:22.149Z,100187.59
2023-07-15T15:05:49.088Z,100187.72
2023-07-15T15:08:15.533Z,100199.84
2023-07-15T15:10:42.548Z,100198.44
2023-07-15T15:13:09.345Z,100194.25
2023-07-15T15:15:36.018Z,100197.25
2023-07-15T15:18:03.091Z,100195.53
2023-07-15T15:20:29.809Z,100172.56
2023-07-15T15:22:57.043Z,100176.88
2023-07-15T15:25:24.142Z,100168.41
2023-07-15T15:27:50.537Z,100168.13
2023-07-15T15:30:17.155Z,100163.41
2023-07-15T15:32:43.823Z,100164.03
2023-07-15T15:35:11.438Z,100170.47
2023-07-15T15:37:37.831Z,100153.69
2023-07-15T15:40:05.007Z,100153.53
2023-07-15T15:42:31.416Z,100146.06
2023-07-15T15:44:58.643Z,100157.84
2023-07-15T15:47:25.849Z,100159.59
2023-07-15T15:49:53.122Z,100170.09
2023-07-15T15:52:19.937Z,100176.75
2023-07-15T15:54:46.520Z,100167.13
2023-07-15T15:57:12.985Z,100172.34
2023-07-15T15:59:39.402Z,100175.16
2023-07-15T16:02:06.033Z,100182.81
2023-07-15T16:04:32.479Z,100179.66
2023-07-15T16:06:59.881Z,100182.38
2023-07-15T16:09:26.466Z,100177.06
2023-07-15T16:11:53.034Z,100183.38
2023-07-15T16:14:19.448Z,100175.47
2023-07-15T16:16:45.851Z,100170.31
2023-07-15T16:19:12.513Z,100172.75
2023-07-15T16:21:38.999Z,100167.00
2023-07-15T16:24:05.534Z,100163.91
2023-07-15T16:26:31.931Z,100157.03
2023-07-15T16:28:58.498Z,100159.44
2023-07-15T16:31:25.172Z,100163.06
2023-07-15T16:33:51.594Z,100159.13
2023-07-15T16:36:17.978Z,100153.34
2023-07-15T16:38:44.342Z,100152.41
2023-07-15T16:41:11.023Z,100144.25
2023-07-15T16:43:37.509Z,100142.81
2023-07-15T16:46:03.991Z,100127.78
2023-07-15T16:48:31.689Z,100123.03
2023-07-15T16:50:58.287Z,100114.78
2023-07-15T16:53:24.707Z,100107.22
2023-07-15T16:55:51.297Z,100096.50
2023-07-15T16:58:18.687Z,100088.31
2023-07-15T17:00:45.267Z,100088.53
2023-07-15T17:03:11.778Z,100080.63
2023-07-15T17:05:38.334Z,100092.59
2023-07-15T17:08:04.690Z,100104.50
2023-07-15T17:10:31.116Z,100094.28
2023-07-15T17:12:57.471Z,100096.59
2023-07-15T17:15:23.859Z,100120.13
2023-07-15T17:17:50.477Z,100126.44
2023-07-15T17:20:16.997Z,100126.59
2023-07-15T17:22:43.651Z,100168.44
2023-07-15T17:25:10.130Z,100154.25
2023-07-15T17:27:36.849Z,100172.25
2023-07-15T17:30:04.993Z,100126.97
2023-07-15T17:32:31.621Z,100144.81
2023-07-15T17:34:58.244Z,100131.31
2023-07-15T17:37:27.903Z,100127.09
2023-07-15T17:39:55.639Z,100118.78
2023-07-15T17:42:22.128Z,100118.25
2023-07-15T17:44:48.770Z,100112.31
2023-07-15T17:47:15.395Z,100109.53
2023-07-15T17:49:44.046Z,100103.50
2023-07-15T17:52:12.491Z,100095.31
2023-07-15T17:54:39.469Z,100103.78
2023-07-15T17:57:06.198Z,100109.06
2023-07-15T17:59:32.805Z,100106.94
2023-07-15T18:01:59.215Z,100110.03
2023-07-15T18:04:25.656Z,100099.09
2023-07-15T18:06:52.261Z,100095.75
2023-07-15T18:09:18.991Z,100083.66
2023-07-15T18:11:45.377Z,100073.97
2023-07-15T18:14:11.795Z,100078.03
2023-07-15T18:16:38.410Z,100067.47
2023-07-15T18:19:05.310Z,100065.38
2023-07-15T18:21:31.897Z,100063.13
2023-07-15T18:23:58.545Z,100051.44
2023-07-15T18:26:25.321Z,100054.53
2023-07-15T18:28:52.092Z,100055.09
2023-07-15T18:31:19.626Z,100040.91
2023-07-15T18:33:46.424Z,100033.59
2023-07-15T18:36:12.840Z,100033.31
2023-07-15T18:38:39.392Z,100033.75
2023-07-15T18:41:05.855Z,100035.97
2023-07-15T18:43:33.096Z,100029.97
2023-07-15T18:45:59.528Z,100028.84
2023-07-15T18:48:25.899Z,100031.63
2023-07-15T18:50:52.234Z,100026.41
2023-07-15T18:53:18.652Z,100019.13
2023-07-15T18:55:45.112Z,100020.97
2023-07-15T18:58:11.492Z,100019.53
2023-07-15T19:00:38.431Z,100018.69
2023-07-15T19:03:05.128Z,100005.09
2023-07-15T19:05:31.598Z,100001.28
2023-07-15T19:07:58.589Z,99993.66
2023-07-15T19:10:25.211Z,99995.53
2023-07-15T19:12:51.945Z,99993.09
2023-07-15T19:15:18.595Z,99992.53
2023-07-15T19:17:47.343Z,99985.31
2023-07-15T19:20:14.374Z,99978.16
2023-07-15T19:22:41.620Z,99975.75
2023-07-15T19:25:08.661Z,99982.91
2023-07-15T19:27:35.246Z,99983.19
2023-07-15T19:30:01.692Z,99980.53
2023-07-15T19:32:28.306Z,99983.44
2023-07-15T19:34:55.016Z,99976.28
2023-07-15T19:37:21.696Z,99969.13
2023-07-15T19:39:48.066Z,99980.88
2023-07-15T19:42:14.724Z,99972.19
2023-07-15T19:44:41.187Z,99969.97
2023-07-15T19:47:08.212Z,99974.44
2023-07-15T19:49:38.250Z,99980.72
2023-07-15T19:52:09.035Z,99983.28
2023-07-15T19:54:35.972Z,99995.91
2023-07-15T19:57:05.085Z,100000.47
2023-07-15T19:59:32.136Z,100011.53
2023-07-15T20:01:59.417Z,100013.00
2023-07-15T20:04:25.954Z,100005.81
2023-07-15T20:06:55.307Z,100004.56
2023-07-15T20:09:23.462Z,100007.69
2023-07-15T20:11:51.611Z,100017.69
2023-07-15T20:14:18.629Z,100011.25
2023-07-15T20:16:46.706Z,100019.91
2023-07-15T20:19:13.297Z,100016.06
2023-07-15T20:21:39.794Z,100010.28
2023-07-15T20:24:06.796Z,100019.44
2023-07-15T20:26:33.618Z,100027.69
2023-07-15T20:29:00.092Z,100027.81
2023-07-15T20:31:26.757Z,100024.50
2023-07-15T20:33:54.284Z,100031.84
2023-07-15T20:36:21.040Z,100045.88
2023-07-15T20:38:47.711Z,100045.28
2023-07-15T20:41:14.644Z,100048.94
2023-07-15T20:43:41.522Z,100046.84
2023-07-15T20:46:07.970Z,100055.00
2023-07-15T20:48:36.307Z,100048.84
2023-07-15T20:51:03.009Z,100047.41
2023-07-15T20:53:29.462Z,100046.22
2023-07-15T20:55:57.315Z,100046.63
2023-07-15T20:58:25.221Z,100052.44
2023-07-15T21:00:52.170Z,100055.94
2023-07-15T21:03:19.662Z,100047.19
2023-07-15T21:06:00.293Z,100051.69
2023-07-15T21:08:27.754Z,100053.66
2023-07-15T21:10:58.325Z,100052.06
2023-07-15T21:13:25.287Z,100059.06
2023-07-15T21:15:51.997Z,100060.16
2023-07-15T21:18:24.430Z,100061.75
2023-07-15T21:20:52.420Z,100061.19
2023-07-15T21:23:19.475Z,100064.41
2023-07-15T21:25:46.712Z,100062.16
2023-07-15T21:28:13.236Z,100065.06
2023-07-15T21:30:39.653Z,100062.66
2023-07-15T21:33:05.991Z,100071.97
2023-07-15T21:35:32.670Z,100070.25
2023-07-15T21:37:59.122Z,100062.03
2023-07-15T21:40:27.458Z,100065.69
2023-07-15T21:42:54.506Z,100058.28
2023-07-15T21:45:21.416Z,100060.59
2023-07-15T21:47:48.096Z,100060.34
2023-07-15T21:50:14.640Z,100057.03
2023-07-15T21:52:41.298Z,100059.50
2023-07-15T21:55:08.315Z,100062.66
2023-07-15T21:57:34.996Z,100076.53
2023-07-15T22:00:01.482Z,100133.47
2023-07-15T22:02:28.152Z,100154.88
2023-07-15T22:04:54.602Z,100167.38
2023-07-15T22:07:21.094Z,100185.81
2023-07-15T22:09:47.417Z,100209.75
2023-07-15T22:12:14.021Z,100196.03
2023-07-15T22:14:40.613Z,100228.13
2023-07-15T22:17:07.128Z,100226.47
2023-07-15T22:19:33.677Z,100240.91
2023-07-15T22:22:00.376Z,100255.16
2023-07-15T22:24:27.177Z,100246.97
2023-07-15T22:26:53.562Z,100246.03
2023-07-15T22:29:20.279Z,100242.56
2023-07-15T22:31:46.715Z,100240.53
2023-07-15T22:34:13.235Z,100247.38
2023-07-15T22:36:39.758Z,100285.31
2023-07-15T22:39:07.903Z,100279.78
2023-07-15T22:41:35.774Z,100263.25
2023-07-15T22:44:02.137Z,100257.66
2023-07-15T22:46:28.515Z,100249.25
2023-07-15T22:48:54.934Z,100251.59
2023-07-15T22:51:21.633Z,100247.34
2023-07-15T22:53:48.318Z,100250.91
2023-07-15T22:56:15.452Z,100244.09
2023-07-15T22:58:42.333Z,100234.22
2023-07-15T23:01:13.290Z,100241.31
2023-07-15T23:03:40.977Z,100241.13
2023-07-15T23:06:08.281Z,100239.75
2023-07-15T23:08:34.804Z,100236.00
2023-07-15T23:11:01.246Z,100224.28
2023-07-15T23:13:27.873Z,100225.69
2023-07-15T23:16:07.129Z,100229.44
2023-07-15T23:18:37.990Z,100227.28
2023-07-15T23:21:04.387Z,100230.22
2023-07-15T23:23:31.032Z,100207.56
2023-07-15T23:25:57.474Z,100217.53
2023-07-15T23:28:24.079Z,100237.75
2023-07-15T23:30:50.838Z,100250.78
2023-07-15T23:33:17.274Z,100257.69
2023-07-15T23:35:45.030Z,100257.22
2023-07-15T23:38:12.164Z,100273.19
2023-07-15T23:40:38.847Z,100271.38
2023-07-15T23:43:05.292Z,100284.19
2023-07-15T23:45:32.915Z,100268.69
2023-07-15T23:48:00.134Z,100269.72
2023-07-15T23:50:27.332Z,100266.03
2023-07-15T23:52:54.072Z,100269.25
2023-07-15T23:55:20.981Z,100262.94
2023-07-15T23:57:47.434Z,100265.09
